Latest Weather Observations for Mount Baw Baw

IDV60801

Issued at 6:31 pm EST Tuesday 3 May 2016 (issued every 30 minutes, with the page automatically refreshed every 10 minutes)

About weather observations | Map of weather stations | Latest weather observations for VIC | Other Formats
Station Details ID: 085291 Name: MOUNT BAW BAW Lat: -37.84 Lon: 146.27 Height: 1561.0 m
Data from the previous 72 hours. | See also: Recent months at Mount Baw Baw
Date/Time
EST
Temp
°C
App
Temp
°C
Dew
Point
Rel
Hum
%
Delta-T
°C
Wind Press
QNH
hPa
Press
MSL
hPa
Rain
since 9 am
mm
Dir
 
Spd
km/h
Gust
km/h
Spd
kts
Gust
kts
03/06:30pm 4.9 -0.8 4.8 99 0.0 W 24 46 - 25 - - 1.0
03/06:00pm 4.8 -1.7 4.7 99 0.0 W 28 56 - 30 - - 0.8
03/05:30pm 4.9 -1.6 4.8 99 0.0 WNW 28 52 - 28 - - 0.8
03/05:00pm 4.8 -2.1 4.7 99 0.0 NW 30 57 - 31 - - 0.0
03/04:31pm 4.7 -1.8 4.6 99 0.0 NNW 28 50 - 27 - - 0.0
03/04:30pm 4.7 -1.4 4.6 99 0.0 NNW 26 50 - 27 - - 0.0
03/04:01pm 4.8 -1.7 4.7 99 0.0 NW 28 46 - 25 - - 0.0
03/04:00pm 4.8 -1.3 4.7 99 0.0 NNW 26 46 - 25 - - 0.0
03/03:30pm 5.2 -1.3 4.5 95 0.3 NNW 28 56 - 30 - - 0.0
03/03:00pm 5.7 -1.3 4.0 89 0.8 NW 30 70 - 38 - - 0.0
03/02:59pm 5.9 -1.1 4.2 89 0.8 NW 30 70 - 38 - - 0.0
03/02:30pm 5.8 -0.2 3.5 85 1.1 NNW 24 48 - 26 - - 0.0
03/02:15pm 6.0 -0.7 3.5 84 1.2 N 28 57 - 31 - - 0.0
03/02:00pm 5.9 0.3 3.2 83 1.2 N 22 46 - 25 - - 0.0
03/01:30pm 6.4 -0.5 2.7 77 1.7 N 28 57 - 31 - - 0.0
03/01:02pm 6.3 -0.6 2.8 78 1.6 N 28 50 - 27 - - 0.0
03/01:00pm 6.5 0.0 2.8 77 1.7 N 26 50 - 27 - - 0.0
03/12:30pm 6.3 -1.0 2.4 76 1.8 N 30 76 - 41 - - 0.0
03/12:00pm 6.4 -0.5 2.3 75 1.9 N 28 61 - 33 - - 0.0
03/11:30am 6.4 -0.5 2.3 75 1.9 N 28 65 - 35 - - 0.0
03/11:00am 5.7 -1.6 2.2 78 1.6 N 30 65 - 35 - - 0.0
03/10:30am 5.7 -1.6 2.4 79 1.5 N 30 69 - 37 - - 0.0
03/10:00am 5.3 -2.6 2.5 82 1.3 N 33 65 - 35 - - 0.0
03/09:30am 4.6 -3.6 2.8 88 0.8 N 35 78 - 42 - - 0.0
03/09:26am 4.7 -3.1 2.6 86 0.9 N 33 78 - 42 - - 0.0
03/09:00am 4.3 -3.3 3.1 92 0.5 NNW 32 59 - 32 - - 0.0
03/08:30am 4.2 -4.0 2.7 90 0.7 N 35 65 - 35 - - 0.0
03/08:00am 3.9 -3.7 2.7 92 0.5 NNW 32 65 - 35 - - 0.0
03/07:30am 3.8 -3.4 2.8 93 0.4 N 30 56 - 30 - - 0.0
03/07:00am 3.5 -3.8 2.6 94 0.4 N 30 63 - 34 - - 0.0
03/06:30am 3.4 -3.5 2.4 93 0.4 N 28 59 - 32 - - 0.0
03/06:07am 3.6 -3.3 2.3 91 0.6 N 28 52 - 28 - - 0.0
03/06:00am 3.5 -3.1 2.2 91 0.6 N 26 57 - 31 - - 0.0
03/05:30am 3.5 -3.4 2.3 92 0.5 N 28 61 - 33 - - 0.0
03/05:10am 3.3 -3.7 2.0 91 0.6 N 28 56 - 30 - - 0.0
03/05:00am 3.2 -3.4 2.0 92 0.5 N 26 57 - 31 - - 0.0
03/04:30am 3.3 -4.1 2.0 91 0.6 N 30 63 - 34 - - 0.0
03/04:00am 3.1 -3.9 1.8 91 0.6 N 28 70 - 38 - - 0.0
03/03:30am 3.1 -3.9 1.8 91 0.6 N 28 54 - 29 - - 0.0
03/03:00am 3.1 -4.7 1.9 92 0.5 N 32 67 - 36 - - 0.0
03/02:30am 2.9 -4.5 2.0 94 0.4 N 30 59 - 32 - - 0.0
03/02:00am 2.8 -4.2 1.8 93 0.4 N 28 59 - 32 - - 0.0
03/01:30am 2.7 -4.3 1.7 93 0.4 N 28 56 - 30 - - 0.0
03/01:01am 2.6 -4.4 1.7 94 0.4 N 28 56 - 30 - - 0.0
03/01:00am 2.6 -4.1 1.7 94 0.4 N 26 56 - 30 - - 0.0
03/12:43am 2.6 -4.5 1.6 93 0.4 N 28 52 - 28 - - 0.0
03/12:30am 2.5 -4.2 1.6 94 0.4 N 26 57 - 31 - - 0.0
03/12:00am 2.3 -4.0 1.4 94 0.4 N 24 59 - 32 - - 0.0
 
Date/Time
EST
Temp
°C
App
Temp
°C
Dew
Point
Rel
Hum
%
Delta-T
°C
Wind Press
QNH
hPa
Press
MSL
hPa
Rain
since 9 am
mm
Dir
 
Spd
km/h
Gust
km/h
Spd
kts
Gust
kts
02/11:54pm 2.2 -4.9 1.3 94 0.4 N 28 54 - 29 - - 0.0
02/11:30pm 2.2 -3.4 1.2 93 0.4 N 20 41 - 22 - - 0.0
02/11:00pm 2.2 -4.6 1.0 92 0.5 N 26 48 - 26 - - 0.0
02/10:30pm 2.1 -5.0 1.1 93 0.4 N 28 57 - 31 - - 0.0
02/10:00pm 2.0 -4.0 1.3 95 0.3 N 22 44 - 24 - - 0.0
02/09:30pm 2.1 -3.5 1.4 95 0.3 N 20 46 - 25 - - 0.0
02/09:00pm 2.0 -3.5 1.7 98 0.1 N 20 43 - 23 - - 0.0
02/08:30pm 2.0 -3.5 1.9 99 0.0 N 20 39 - 21 - - 0.0
02/08:00pm 2.0 -3.5 1.9 99 0.0 N 20 41 - 22 - - 0.0
02/07:30pm 1.8 -4.5 1.5 98 0.1 NNE 24 44 - 24 - - 0.0
02/07:00pm 1.6 -4.7 1.5 99 0.0 N 24 46 - 25 - - 0.0
02/06:30pm 1.4 -4.2 1.3 99 0.0 N 20 44 - 24 - - 0.0
02/06:00pm 1.3 -4.3 1.2 99 0.0 N 20 46 - 25 - - 0.0
02/05:30pm 1.4 -4.0 1.1 98 0.1 N 19 44 - 24 - - 0.0
02/05:00pm 1.7 -3.8 1.6 99 0.0 N 20 43 - 23 - - 0.0
02/04:30pm 1.8 -3.7 1.7 99 0.0 N 20 35 - 19 - - 0.0
02/04:00pm 1.8 -3.8 1.4 97 0.2 N 20 32 - 17 - - 0.0
02/03:30pm 1.8 -3.7 0.8 93 0.4 NNW 19 37 - 20 - - 0.0
02/03:00pm 1.9 -3.6 0.9 93 0.4 NNW 19 37 - 20 - - 0.0
02/02:30pm 1.7 -3.4 1.0 95 0.3 NNW 17 35 - 19 - - 0.0
02/02:00pm 1.9 -3.7 1.2 95 0.3 NNW 20 39 - 21 - - 0.0
02/01:30pm 1.4 -4.2 1.1 98 0.1 NNW 20 44 - 24 - - 0.0
02/01:00pm 1.0 -4.5 0.9 99 0.0 NNW 19 41 - 22 - - 0.0
02/12:30pm 0.7 -5.0 0.6 99 0.0 NNW 20 52 - 28 - - 0.0
02/12:00pm 0.6 -4.9 0.5 99 0.0 NW 19 35 - 19 - - 0.0
02/11:30am 0.5 -5.2 0.4 99 0.0 NW 20 39 - 21 - - 0.0
02/11:00am 0.5 -5.6 0.4 99 0.0 WNW 22 33 - 18 - - 0.0
02/10:30am 0.4 -5.3 0.3 99 0.0 WNW 20 39 - 21 - - 0.0
02/10:00am 0.2 -5.6 0.1 99 0.0 WNW 20 43 - 23 - - 0.0
02/09:30am 0.0 -6.9 -0.1 99 0.0 WNW 26 44 - 24 - - 0.0
02/09:00am -0.3 -6.9 -0.4 99 0.0 WNW 24 46 - 25 - - 6.8
02/08:30am -0.5 -6.7 -0.6 99 0.0 NNW 22 44 - 24 - - 6.8
02/08:00am -0.9 -7.2 -1.0 99 0.0 NNW 22 44 - 24 - - 6.8
02/07:30am -1.0 -7.7 -1.1 99 0.0 W 24 46 - 25 - - 6.8
02/07:00am -1.3 -7.7 -1.4 99 0.0 W 22 44 - 24 - - 6.8
02/06:30am -1.5 -7.9 -1.6 99 0.0 W 22 48 - 26 - - 6.8
02/06:03am -1.5 -9.0 -1.6 99 0.0 W 28 48 - 26 - - 6.8
02/06:00am -1.4 -8.5 -1.5 99 0.0 W 26 48 - 26 - - 6.8
02/05:46am -1.4 -8.9 -1.5 99 0.0 W 28 46 - 25 - - 6.8
02/05:30am -1.3 -8.4 -1.4 99 0.0 W 26 46 - 25 - - 6.8
02/05:16am -1.4 -8.9 -1.5 99 0.0 W 28 46 - 25 - - 6.8
02/05:00am -1.4 -7.8 -1.5 99 0.0 W 22 41 - 22 - - 6.8
02/04:30am -1.5 -8.3 -1.6 99 0.0 W 24 41 - 22 - - 6.8
02/04:00am -1.4 -8.2 -1.5 99 0.0 W 24 43 - 23 - - 6.8
02/03:30am -1.3 -7.7 -1.4 99 0.0 W 22 35 - 19 - - 6.8
02/03:00am -1.0 -7.3 -1.1 99 0.0 W 22 39 - 21 - - 6.8
02/02:30am -0.9 -7.2 -1.0 99 0.0 W 22 44 - 24 - - 6.8
02/02:00am -0.8 -7.5 -0.9 99 0.0 W 24 41 - 22 - - 6.8
02/01:30am -1.2 -7.5 -1.3 99 0.0 W 22 37 - 20 - - 6.8
02/01:00am -1.1 -8.2 -1.2 99 0.0 W 26 43 - 23 - - 6.8
02/12:30am -1.0 -7.7 -1.1 99 0.0 W 24 43 - 23 - - 6.8
02/12:00am -0.9 -7.2 -1.0 99 0.0 W 22 43 - 23 - - 6.8
 
Date/Time
EST
Temp
°C
App
Temp
°C
Dew
Point
Rel
Hum
%
Delta-T
°C
Wind Press
QNH
hPa
Press
MSL
hPa
Rain
since 9 am
mm
Dir
 
Spd
km/h
Gust
km/h
Spd
kts
Gust
kts
01/11:30pm -0.8 -7.5 -0.9 99 0.0 W 24 39 - 21 - - 6.8
01/11:00pm -0.9 -6.8 -1.0 99 0.0 W 20 37 - 20 - - 6.8
01/10:30pm -0.8 -7.1 -0.9 99 0.0 W 22 35 - 19 - - 6.8
01/10:00pm -0.7 -7.7 -0.8 99 0.0 W 26 43 - 23 - - 6.8
01/09:30pm -0.6 -8.0 -0.7 99 0.0 W 28 46 - 25 - - 6.8
01/09:10pm -0.5 -7.9 -0.6 99 0.0 W 28 46 - 25 - - 6.8
01/09:00pm -0.4 -7.4 -0.5 99 0.0 W 26 46 - 25 - - 6.8
01/08:55pm -0.4 -7.8 -0.5 99 0.0 W 28 46 - 25 - - 6.8
01/08:30pm -0.1 -6.3 -0.2 99 0.0 W 22 39 - 21 - - 6.6
01/08:00pm -0.2 -6.8 -0.3 99 0.0 W 24 39 - 21 - - 6.6
01/07:30pm -0.2 -7.2 -0.3 99 0.0 W 26 50 - 27 - - 6.6
01/07:03pm -0.1 -7.4 -0.2 99 0.0 W 28 46 - 25 - - 6.6
01/07:00pm -0.1 -7.8 -0.2 99 0.0 W 30 46 - 25 - - 6.6
01/06:30pm -0.2 -7.5 -0.3 99 0.0 W 28 50 - 27 - - 6.6
01/06:00pm 0.1 -7.2 0.0 99 0.0 W 28 48 - 26 - - 6.6
01/05:30pm 0.2 -8.0 0.1 99 0.0 W 33 63 - 34 - - 6.6
01/05:00pm 0.3 -7.0 0.2 99 0.0 W 28 50 - 27 - - 6.6
01/04:31pm 0.4 -6.9 0.3 99 0.0 W 28 50 - 27 - - 5.8
01/04:30pm 0.3 -6.6 0.2 99 0.0 W 26 41 - 22 - - 5.8
01/04:03pm 0.5 -6.7 0.4 99 0.0 W 28 46 - 25 - - 4.8
01/04:00pm 1.0 -6.5 0.9 99 0.0 W 30 46 - 25 - - 4.8
01/03:35pm 1.0 -6.2 0.9 99 0.0 W 28 46 - 25 - - 4.8
01/03:30pm 1.1 -5.3 1.0 99 0.0 W 24 43 - 23 - - 4.8
01/03:00pm 0.8 -6.4 0.7 99 0.0 W 28 52 - 28 - - 4.8
01/02:30pm 1.1 -6.4 1.0 99 0.0 W 30 50 - 27 - - 4.8
01/02:00pm 0.8 -7.3 0.7 99 0.0 W 33 57 - 31 - - 4.6
01/01:49pm 0.8 -6.4 0.7 99 0.0 W 28 61 - 33 - - 4.4
01/01:30pm 2.0 -3.9 1.9 99 0.0 WNW 22 41 - 22 - - 3.8
01/01:00pm 2.0 -3.3 1.9 99 0.0 WNW 19 39 - 21 - - 3.8
01/12:30pm 1.3 -5.1 1.2 99 0.0 WNW 24 41 - 22 - - 3.2
01/12:00pm 1.6 -4.3 1.5 99 0.0 WNW 22 43 - 23 - - 1.6
01/11:30am 2.0 -4.2 1.9 99 0.0 WNW 24 44 - 24 - - 1.0
01/11:00am 2.1 -4.5 2.0 99 0.0 WNW 26 50 - 27 - - 1.0
01/10:51am 2.1 -4.9 2.0 99 0.0 WNW 28 56 - 30 - - 1.0
01/10:30am 2.2 -3.6 2.1 99 0.0 NW 22 41 - 22 - - 1.0
01/10:00am 2.4 -4.5 2.3 99 0.0 WNW 28 48 - 26 - - 0.6
01/09:31am 2.6 -4.3 2.5 99 0.0 WNW 28 61 - 33 - - 0.6
01/09:30am 2.5 -4.0 2.4 99 0.0 WNW 26 44 - 24 - - 0.6
01/09:20am 2.7 -4.2 2.6 99 0.0 WNW 28 59 - 32 - - 0.6
01/09:00am 2.3 -3.1 2.2 99 0.0 NW 20 46 - 25 - - 8.4
01/08:30am 3.9 -1.6 3.8 99 0.0 NNW 22 44 - 24 - - 7.8
01/08:00am 4.3 -1.2 3.9 97 0.2 NW 22 54 - 29 - - 7.8
01/07:30am 4.5 -0.9 4.4 99 0.0 NNW 22 43 - 23 - - 7.8
01/07:00am 4.9 0.1 4.8 99 0.0 NW 19 35 - 19 - - 7.8
01/06:30am 5.3 0.0 5.0 98 0.1 NW 22 44 - 24 - - 7.8
01/06:00am 5.2 -0.1 5.1 99 0.0 NW 22 39 - 21 - - 7.8
01/05:30am 5.5 -0.1 5.4 99 0.0 NW 24 46 - 25 - - 7.8
01/05:00am 5.6 -0.7 5.5 99 0.0 WNW 28 52 - 28 - - 7.2
01/04:30am 5.6 -1.5 5.5 99 0.0 WNW 32 69 - 37 - - 4.6
01/04:13am 7.3 2.1 7.2 99 0.1 N 24 54 - 29 - - 2.4
01/04:00am 8.9 4.5 8.8 99 0.1 NNE 22 41 - 22 - - 1.2
01/03:30am 9.0 5.0 8.9 99 0.1 NNE 20 52 - 28 - - 0.4
01/03:00am 8.8 4.3 8.7 99 0.1 NNE 22 44 - 24 - - 0.4
01/02:30am 8.8 4.7 8.7 99 0.1 NNE 20 52 - 28 - - 0.4
01/02:00am 9.0 5.5 8.7 98 0.2 NE 17 43 - 23 - - 0.0
01/01:30am 8.6 5.4 8.5 99 0.1 ENE 15 30 - 16 - - 0.0
01/01:00am 8.7 4.6 8.6 99 0.1 NNE 20 33 - 18 - - 0.0
01/12:30am 8.2 4.5 8.1 99 0.1 NE 17 37 - 20 - - 0.0
01/12:00am 8.1 3.8 8.0 99 0.1 NE 20 41 - 22 - - 0.0
 
Date/Time
EST
Temp
°C
App
Temp
°C
Dew
Point
Rel
Hum
%
Delta-T
°C
Wind Press
QNH
hPa
Press
MSL
hPa
Rain
since 9 am
mm
Dir
 
Spd
km/h
Gust
km/h
Spd
kts
Gust
kts
30/11:30pm 8.1 3.0 7.7 97 0.2 NNE 24 46 - 25 - - 0.0
30/11:00pm 8.2 3.5 7.6 96 0.3 NNE 22 43 - 23 - - 0.0
30/10:30pm 8.2 3.5 7.9 98 0.2 NNE 22 46 - 25 - - 0.0
30/10:00pm 8.3 3.6 7.9 97 0.2 NNE 22 56 - 30 - - 0.0
30/09:30pm 8.3 4.0 7.2 93 0.6 NNE 19 35 - 19 - - 0.0
30/09:00pm 8.2 3.7 7.1 93 0.6 NNE 20 39 - 21 - - 0.0
30/08:30pm 8.2 3.8 7.4 95 0.4 NNE 20 41 - 22 - - 0.0
30/08:00pm 8.4 4.4 8.3 99 0.1 NNE 19 35 - 19 - - 0.0
30/07:30pm 8.4 4.2 8.3 99 0.1 NE 20 41 - 22 - - 0.0
30/07:00pm 8.5 4.3 8.2 98 0.2 NE 20 39 - 21 - - 0.0

Other Formats:

Comma delimited format used in spreadsheet applications
http://www.bom.gov.au/fwo/IDV60801/IDV60801.95901.axf

JavaScript Object Notation format (JSON) in row-major order
http://www.bom.gov.au/fwo/IDV60801/IDV60801.95901.json